createdAt,value
2023-04-09T00:08:08.462Z,8.50
2023-04-09T00:11:37.167Z,8.25
2023-04-09T00:14:33.466Z,6.55
2023-04-09T00:17:23.064Z,7.35
2023-04-09T00:20:23.233Z,6.38
2023-04-09T00:23:31.574Z,6.88
2023-04-09T00:26:32.527Z,6.93
2023-04-09T00:29:23.686Z,7.47
2023-04-09T00:32:15.582Z,7.57
2023-04-09T00:35:04.288Z,7.82
2023-04-09T00:37:57.392Z,7.90
2023-04-09T00:40:50.694Z,7.80
2023-04-09T00:43:39.430Z,6.87
2023-04-09T00:46:28.536Z,8.18
2023-04-09T00:49:17.430Z,8.15
2023-04-09T00:52:06.842Z,7.50
2023-04-09T00:54:57.076Z,7.65
2023-04-09T00:57:47.157Z,7.97
2023-04-09T01:00:36.020Z,7.68
2023-04-09T01:03:25.014Z,7.93
2023-04-09T01:06:27.091Z,8.10
2023-04-09T01:09:25.748Z,7.93
2023-04-09T01:12:26.962Z,7.85
2023-04-09T01:15:23.555Z,7.90
2023-04-09T01:18:23.576Z,8.32
2023-04-09T01:21:16.317Z,7.35
2023-04-09T01:24:30.703Z,8.63
2023-04-09T01:27:20.110Z,8.00
2023-04-09T01:30:19.280Z,7.43
2023-04-09T01:33:08.535Z,8.50
2023-04-09T01:35:58.934Z,8.73
2023-04-09T01:38:51.716Z,7.87
2023-04-09T01:41:42.542Z,7.63
2023-04-09T01:44:32.377Z,7.60
2023-04-09T01:47:23.820Z,7.50
2023-04-09T01:50:12.771Z,7.27
2023-04-09T01:53:02.454Z,7.00
2023-04-09T01:55:51.381Z,7.40
2023-04-09T01:58:40.921Z,7.57
2023-04-09T02:01:39.425Z,7.30
2023-04-09T02:04:36.383Z,7.77
2023-04-09T02:07:38.608Z,7.23
2023-04-09T02:10:32.595Z,8.17
2023-04-09T02:13:22.468Z,7.97
2023-04-09T02:16:14.776Z,8.30
2023-04-09T02:19:03.826Z,7.60
2023-04-09T02:21:53.802Z,8.10
2023-04-09T02:24:42.506Z,7.73
2023-04-09T02:27:31.295Z,7.10
2023-04-09T02:30:19.931Z,7.27
2023-04-09T02:33:08.615Z,8.43
2023-04-09T02:35:57.245Z,9.00
2023-04-09T02:38:47.273Z,8.17
2023-04-09T02:41:35.825Z,8.63
2023-04-09T02:44:24.432Z,8.23
2023-04-09T02:47:13.094Z,8.03
2023-04-09T02:50:01.805Z,8.67
2023-04-09T02:52:52.989Z,8.30
2023-04-09T02:55:42.999Z,8.60
2023-04-09T02:58:31.527Z,9.77
2023-04-09T03:01:20.211Z,8.97
2023-04-09T03:04:08.987Z,10.27
2023-04-09T03:06:57.616Z,10.23
2023-04-09T03:09:46.134Z,10.77
2023-04-09T03:12:36.704Z,10.23
2023-04-09T03:15:25.274Z,10.37
2023-04-09T03:18:13.966Z,11.30
2023-04-09T03:21:07.561Z,12.60
2023-04-09T03:23:58.202Z,12.73
2023-04-09T03:26:46.821Z,11.30
2023-04-09T03:29:38.158Z,12.60
2023-04-09T03:32:27.513Z,10.77
2023-04-09T03:35:17.090Z,11.73
2023-04-09T03:38:06.839Z,11.77
2023-04-09T03:40:55.452Z,11.60
2023-04-09T03:43:44.022Z,10.60
2023-04-09T03:46:36.302Z,11.10
2023-04-09T03:49:25.928Z,11.73
2023-04-09T03:52:17.115Z,11.70
2023-04-09T03:55:11.365Z,11.37
2023-04-09T03:58:00.262Z,11.00
2023-04-09T04:00:52.980Z,10.60
2023-04-09T04:03:55.466Z,10.13
2023-04-09T04:06:46.199Z,10.77
2023-04-09T04:09:48.816Z,10.37
2023-04-09T04:12:40.247Z,11.30
2023-04-09T04:15:33.231Z,10.60
2023-04-09T04:18:22.051Z,12.20
2023-04-09T04:21:18.680Z,10.97
2023-04-09T04:24:15.349Z,11.37
2023-04-09T04:27:03.973Z,11.77
2023-04-09T04:29:58.544Z,11.00
2023-04-09T04:33:01.430Z,10.57
2023-04-09T04:35:55.637Z,11.40
2023-04-09T04:39:04.668Z,11.27
2023-04-09T04:42:03.493Z,9.27
2023-04-09T04:44:52.256Z,11.10
2023-04-09T04:48:13.140Z,10.20
2023-04-09T04:51:03.513Z,11.50
2023-04-09T04:54:00.840Z,10.87
2023-04-09T04:56:51.350Z,10.33
2023-04-09T05:00:00.233Z,10.17
2023-04-09T05:02:49.218Z,10.40
2023-04-09T05:05:42.308Z,10.97
2023-04-09T05:08:31.732Z,11.40
2023-04-09T05:11:21.233Z,10.10
2023-04-09T05:14:13.148Z,10.20
2023-04-09T05:17:01.928Z,10.40
2023-04-09T05:20:01.316Z,9.33
2023-04-09T05:23:01.423Z,9.03
2023-04-09T05:25:54.450Z,11.03
2023-04-09T05:28:54.984Z,8.67
2023-04-09T05:31:46.541Z,8.07
2023-04-09T05:35:01.358Z,7.33
2023-04-09T05:37:52.170Z,8.30
2023-04-09T05:40:42.240Z,9.00
2023-04-09T05:43:34.031Z,8.93
2023-04-09T05:46:22.866Z,8.77
2023-04-09T05:49:14.046Z,9.47
2023-04-09T05:52:04.938Z,9.87
2023-04-09T05:54:54.468Z,9.87
2023-04-09T05:57:49.242Z,11.97
2023-04-09T06:00:38.826Z,10.00
2023-04-09T06:03:28.850Z,10.77
2023-04-09T06:06:19.180Z,11.07
2023-04-09T06:09:08.062Z,11.90
2023-04-09T06:15:40.650Z,11.63
2023-04-09T06:18:59.426Z,12.70
2023-04-09T06:21:49.862Z,12.17
2023-04-09T06:24:38.824Z,12.67
2023-04-09T06:27:27.742Z,14.13
2023-04-09T06:30:16.923Z,15.30
2023-04-09T06:33:06.378Z,13.40
2023-04-09T06:36:22.929Z,14.07
2023-04-09T06:39:21.161Z,14.70
2023-04-09T06:42:12.728Z,14.07
2023-04-09T06:45:41.370Z,12.90
2023-04-09T06:48:31.269Z,14.50
2023-04-09T06:51:19.883Z,14.37
2023-04-09T06:54:08.325Z,13.47
2023-04-09T06:56:58.105Z,13.53
2023-04-09T06:59:46.664Z,13.73
2023-04-09T07:02:35.757Z,13.80
2023-04-09T07:05:24.569Z,12.57
2023-04-09T07:08:13.224Z,13.77
2023-04-09T07:15:30.955Z,13.53
2023-04-09T07:18:19.973Z,12.38
2023-04-09T07:21:08.452Z,13.80
2023-04-09T07:23:57.504Z,13.35
2023-04-09T07:26:46.103Z,13.70
2023-04-09T07:29:38.479Z,13.57
2023-04-09T07:32:29.186Z,11.90
2023-04-09T07:35:18.580Z,14.80
2023-04-09T07:38:07.167Z,11.55
2023-04-09T07:40:55.630Z,12.30
2023-04-09T07:43:44.101Z,12.85
2023-04-09T07:46:32.621Z,13.02
2023-04-09T07:49:22.492Z,12.50
2023-04-09T07:52:10.978Z,12.73
2023-04-09T07:54:59.441Z,13.27
2023-04-09T07:57:48.351Z,12.00
2023-04-09T08:00:37.057Z,12.00
2023-04-09T08:03:26.159Z,12.45
2023-04-09T08:06:16.165Z,11.68
2023-04-09T08:09:04.750Z,11.80
2023-04-09T08:11:53.268Z,11.18
2023-04-09T08:14:41.966Z,11.18
2023-04-09T08:17:31.208Z,12.10
2023-04-09T08:20:19.719Z,12.30
2023-04-09T08:23:09.548Z,12.05
2023-04-09T08:25:57.969Z,11.02
2023-04-09T08:28:46.548Z,11.98
2023-04-09T08:31:35.310Z,10.23
2023-04-09T08:34:23.835Z,10.82
2023-04-09T08:37:12.334Z,10.48
2023-04-09T08:40:02.544Z,10.52
2023-04-09T08:42:57.136Z,7.80
2023-04-09T08:45:45.728Z,8.10
2023-04-09T08:48:34.319Z,8.95
2023-04-09T08:51:24.963Z,8.73
2023-04-09T08:54:19.924Z,9.43
2023-04-09T08:57:09.915Z,8.20
2023-04-09T08:59:58.855Z,9.73
2023-04-09T09:03:03.853Z,8.13
2023-04-09T09:05:52.554Z,8.20
2023-04-09T09:08:40.990Z,10.05
2023-04-09T09:11:30.385Z,8.57
2023-04-09T09:14:21.140Z,8.55
2023-04-09T09:17:09.674Z,8.20
2023-04-09T09:19:58.551Z,7.47
2023-04-09T09:22:54.715Z,7.60
2023-04-09T09:25:44.600Z,8.00
2023-04-09T09:28:37.131Z,8.00
2023-04-09T09:31:27.879Z,8.65
2023-04-09T09:34:17.784Z,7.90
2023-04-09T09:37:29.443Z,8.10
2023-04-09T09:40:28.834Z,7.85
2023-04-09T09:43:17.373Z,8.10
2023-04-09T09:46:06.465Z,8.63
2023-04-09T09:48:57.551Z,8.13
2023-04-09T09:51:46.354Z,5.63
2023-04-09T09:54:42.704Z,4.93
2023-04-09T09:57:34.193Z,6.65
2023-04-09T10:00:25.361Z,5.78
2023-04-09T10:03:21.641Z,8.05
2023-04-09T10:06:23.245Z,5.80
2023-04-09T10:09:14.587Z,5.20
2023-04-09T10:12:07.753Z,5.93
2023-04-09T10:14:57.399Z,6.55
2023-04-09T10:17:46.253Z,6.18
2023-04-09T10:20:44.921Z,6.80
2023-04-09T10:23:41.121Z,5.50
2023-04-09T10:26:30.861Z,6.47
2023-04-09T10:29:29.181Z,6.95
2023-04-09T10:32:26.582Z,7.28
2023-04-09T10:35:27.004Z,6.50
2023-04-09T10:38:16.402Z,7.68
2023-04-09T10:41:28.689Z,6.88
2023-04-09T10:44:25.220Z,7.00
2023-04-09T10:47:33.200Z,7.80
2023-04-09T10:50:26.521Z,7.00
2023-04-09T10:53:24.772Z,7.63
2023-04-09T10:56:17.344Z,7.93
2023-04-09T10:59:07.364Z,7.25
2023-04-09T11:01:55.949Z,7.75
2023-04-09T11:05:05.912Z,8.18
2023-04-09T11:08:04.292Z,7.25
2023-04-09T11:10:56.802Z,6.93
2023-04-09T11:13:45.250Z,7.05
2023-04-09T11:16:36.772Z,7.28
2023-04-09T11:19:26.242Z,7.80
2023-04-09T11:22:14.926Z,7.55
2023-04-09T11:25:07.169Z,7.03
2023-04-09T11:27:56.006Z,6.50
2023-04-09T11:30:47.093Z,5.60
2023-04-09T11:33:36.990Z,5.88
2023-04-09T11:36:32.178Z,6.47
2023-04-09T11:39:23.397Z,6.05
2023-04-09T11:42:17.793Z,5.82
2023-04-09T11:45:07.966Z,5.55
2023-04-09T11:47:57.332Z,5.53
2023-04-09T11:50:48.734Z,6.18
2023-04-09T11:53:38.966Z,5.55
2023-04-09T11:56:31.084Z,6.45
2023-04-09T11:59:19.545Z,6.55
2023-04-09T12:02:08.684Z,6.75
2023-04-09T12:04:59.435Z,6.55
2023-04-09T12:07:56.409Z,6.40
2023-04-09T12:10:45.542Z,5.45
2023-04-09T12:13:34.393Z,6.15
2023-04-09T12:16:22.972Z,6.20
2023-04-09T12:19:13.357Z,6.45
2023-04-09T12:22:01.793Z,6.03
2023-04-09T12:24:51.634Z,6.60
2023-04-09T12:27:40.174Z,5.35
2023-04-09T12:30:28.862Z,5.88
2023-04-09T12:33:17.383Z,5.97
2023-04-09T12:36:05.985Z,6.07
2023-04-09T12:38:54.889Z,6.03
2023-04-09T12:41:45.598Z,5.43
2023-04-09T12:44:34.316Z,5.70
2023-04-09T12:47:22.950Z,5.68
2023-04-09T12:50:13.565Z,6.75
2023-04-09T12:53:02.028Z,6.78
2023-04-09T12:55:50.905Z,7.53
2023-04-09T12:58:41.094Z,6.80
2023-04-09T13:01:31.503Z,6.78
2023-04-09T13:04:20.326Z,6.05
2023-04-09T13:07:08.829Z,6.55
2023-04-09T13:10:00.017Z,6.53
2023-04-09T13:12:48.446Z,6.35
2023-04-09T13:15:38.402Z,6.00
2023-04-09T13:18:27.073Z,6.05
2023-04-09T13:21:18.700Z,6.90
2023-04-09T13:24:07.320Z,6.05
2023-04-09T13:26:55.770Z,6.65
2023-04-09T13:29:44.175Z,7.05
2023-04-09T13:32:34.042Z,6.88
2023-04-09T13:35:22.664Z,6.47
2023-04-09T13:38:11.104Z,6.68
2023-04-09T13:40:59.547Z,6.90
2023-04-09T13:43:47.974Z,6.18
2023-04-09T13:46:36.646Z,5.93
2023-04-09T13:49:27.233Z,6.65
2023-04-09T13:52:15.751Z,6.43
2023-04-09T13:55:04.786Z,6.57
2023-04-09T13:57:53.230Z,7.05
2023-04-09T14:00:41.708Z,7.05
2023-04-09T14:03:30.398Z,6.40
2023-04-09T14:06:20.388Z,5.93
2023-04-09T14:09:08.946Z,5.50
2023-04-09T14:11:57.433Z,5.15
2023-04-09T14:14:46.188Z,4.47
2023-04-09T14:18:15.431Z,5.65
2023-04-09T14:21:04.117Z,5.95
2023-04-09T14:23:54.015Z,5.63
2023-04-09T14:26:42.458Z,5.65
2023-04-09T14:29:30.861Z,6.40
2023-04-09T14:32:19.754Z,5.20
2023-04-09T14:35:08.942Z,5.70
2023-04-09T14:37:57.446Z,5.47
2023-04-09T14:40:47.556Z,5.43
2023-04-09T14:43:50.404Z,5.57
2023-04-09T14:56:29.321Z,4.93
2023-04-09T14:56:33.140Z,5.38
2023-04-09T14:59:17.976Z,5.03
2023-04-09T15:02:06.668Z,5.18
2023-04-09T15:04:55.202Z,5.63
2023-04-09T15:07:43.837Z,5.65
2023-04-09T15:10:32.388Z,6.68
2023-04-09T15:13:22.255Z,6.57
2023-04-09T15:16:11.011Z,5.40
2023-04-09T15:19:00.065Z,6.03
2023-04-09T15:21:49.018Z,6.65
2023-04-09T15:24:37.812Z,5.72
2023-04-09T15:27:26.619Z,6.25
2023-04-09T15:30:17.133Z,6.45
2023-04-09T15:33:33.826Z,5.18
2023-04-09T15:36:24.461Z,5.57
2023-04-09T15:39:13.204Z,6.20
2023-04-09T15:42:02.833Z,6.00
2023-04-09T15:44:51.749Z,5.38
2023-04-09T15:47:41.590Z,6.65
2023-04-09T15:50:30.070Z,6.45
2023-04-09T15:53:31.181Z,6.97
2023-04-09T15:56:20.364Z,6.63
2023-04-09T15:59:09.227Z,6.70
2023-04-09T16:01:57.888Z,7.38
2023-04-09T16:04:48.273Z,6.13
2023-04-09T16:07:36.843Z,5.50
2023-04-09T16:10:25.444Z,6.78
2023-04-09T16:13:13.893Z,6.50
2023-04-09T16:16:02.647Z,6.15
2023-04-09T16:18:51.489Z,6.75
2023-04-09T16:21:43.936Z,6.05
2023-04-09T16:24:32.562Z,6.63
2023-04-09T16:27:21.219Z,7.20
2023-04-09T16:30:10.780Z,6.45
2023-04-09T16:32:59.288Z,5.63
2023-04-09T16:35:47.822Z,5.95
2023-04-09T16:38:38.296Z,6.05
2023-04-09T16:41:28.766Z,6.35
2023-04-09T16:44:17.143Z,6.47
2023-04-09T16:47:08.239Z,6.78
2023-04-09T16:49:56.989Z,6.60
2023-04-09T16:52:45.495Z,5.85
2023-04-09T16:55:35.649Z,6.10
2023-04-09T16:58:24.122Z,5.85
2023-04-09T17:01:12.716Z,6.35
2023-04-09T17:04:03.109Z,10.38
2023-04-09T17:06:51.652Z,66.40
2023-04-09T17:09:40.053Z,58.03
2023-04-09T17:12:30.091Z,17.08
2023-04-09T17:15:18.773Z,17.40
2023-04-09T17:18:15.073Z,9.23
2023-04-09T17:21:04.175Z,9.57
2023-04-09T17:23:52.674Z,6.75
2023-04-09T17:26:41.626Z,6.32
2023-04-09T17:29:31.905Z,7.68
2023-04-09T17:32:20.703Z,8.55
2023-04-09T17:35:10.306Z,10.30
2023-04-09T17:37:58.737Z,9.65
2023-04-09T17:40:47.245Z,8.05
2023-04-09T17:43:36.641Z,8.85
2023-04-09T17:46:26.672Z,8.05
2023-04-09T17:49:15.169Z,7.97
2023-04-09T17:52:03.798Z,13.82
2023-04-09T17:54:52.323Z,12.52
2023-04-09T17:57:41.550Z,11.98
2023-04-09T18:00:30.111Z,12.82
2023-04-09T18:03:20.331Z,14.00
2023-04-09T18:06:09.209Z,12.80
2023-04-09T18:08:57.750Z,13.82
2023-04-09T18:11:46.388Z,18.48
2023-04-09T18:14:34.919Z,16.83
2023-04-09T18:17:23.833Z,15.93
2023-04-09T18:20:39.011Z,11.68
2023-04-09T18:23:27.972Z,9.90
2023-04-09T18:26:16.857Z,10.23
2023-04-09T18:29:12.563Z,9.43
2023-04-09T18:32:01.114Z,8.57
2023-04-09T18:34:49.827Z,8.20
2023-04-09T18:37:39.713Z,8.75
2023-04-09T18:40:28.545Z,7.55
2023-04-09T18:43:17.095Z,9.18
2023-04-09T18:46:06.751Z,10.25
2023-04-09T18:48:55.494Z,14.15
2023-04-09T18:51:47.380Z,28.60
2023-04-09T18:54:38.530Z,28.35
2023-04-09T18:57:27.225Z,25.35
2023-04-09T19:00:16.106Z,25.77
2023-04-09T19:03:05.551Z,23.52
2023-04-09T19:05:54.405Z,21.38
2023-04-09T19:08:43.005Z,18.70
2023-04-09T19:11:32.780Z,18.33
2023-04-09T19:14:21.273Z,18.40
2023-04-09T19:17:09.781Z,18.13
2023-04-09T19:19:58.142Z,18.67
2023-04-09T19:22:48.230Z,19.50
2023-04-09T19:25:36.843Z,19.10
2023-04-09T19:28:26.590Z,21.00
2023-04-09T19:31:15.990Z,18.88
2023-04-09T19:34:05.981Z,19.00
2023-04-09T19:36:54.460Z,18.42
2023-04-09T19:39:42.843Z,18.27
2023-04-09T19:42:32.675Z,17.10
2023-04-09T19:45:22.545Z,17.52
2023-04-09T19:48:11.638Z,16.00
2023-04-09T19:51:00.096Z,15.05
2023-04-09T19:53:49.248Z,15.20
2023-04-09T19:56:38.158Z,14.43
2023-04-09T19:59:27.158Z,14.20
2023-04-09T20:02:50.252Z,14.52
2023-04-09T20:06:12.940Z,13.80
2023-04-09T20:10:52.959Z,14.15
2023-04-09T20:13:38.844Z,15.02
2023-04-09T20:17:13.731Z,17.25
2023-04-09T20:24:32.148Z,22.05
2023-04-09T20:30:45.327Z,19.33
2023-04-09T20:39:05.185Z,21.77
2023-04-09T20:41:56.841Z,20.77
2023-04-09T20:44:45.520Z,22.05
2023-04-09T20:47:34.151Z,23.02
2023-04-09T20:50:22.793Z,24.40
2023-04-09T20:53:11.805Z,23.13
2023-04-09T20:56:01.926Z,22.17
2023-04-09T20:58:52.360Z,20.88
2023-04-09T21:01:41.259Z,20.92
2023-04-09T21:04:30.383Z,21.50
2023-04-09T21:07:19.090Z,21.25
2023-04-09T21:10:09.627Z,22.38
2023-04-09T21:12:58.184Z,22.88
2023-04-09T21:16:03.855Z,20.92
2023-04-09T21:18:52.798Z,22.40
2023-04-09T21:21:41.535Z,21.83
2023-04-09T21:24:31.181Z,21.70
2023-04-09T21:27:19.746Z,23.17
2023-04-09T21:30:10.000Z,22.58
2023-04-09T21:33:01.347Z,21.73
2023-04-09T21:35:53.704Z,22.05
2023-04-09T21:38:42.277Z,24.10
2023-04-09T21:41:30.789Z,24.73
2023-04-09T21:44:19.785Z,24.83
2023-04-09T21:47:09.069Z,26.70
2023-04-09T21:49:59.382Z,28.80
2023-04-09T21:52:47.908Z,28.70
2023-04-09T21:55:37.321Z,30.00
2023-04-09T21:58:25.790Z,30.45
2023-04-09T22:01:22.680Z,28.65
2023-04-09T22:04:14.956Z,31.38
2023-04-09T22:07:05.342Z,29.92
2023-04-09T22:09:55.705Z,30.50
2023-04-09T22:12:44.228Z,32.28
2023-04-09T22:15:32.879Z,30.67
2023-04-09T22:18:21.798Z,32.58
2023-04-09T22:21:14.983Z,31.83
2023-04-09T22:24:05.641Z,30.08
2023-04-09T22:26:54.357Z,30.73
2023-04-09T22:29:42.895Z,30.58
2023-04-09T22:32:33.299Z,29.10
2023-04-09T22:35:21.817Z,29.20
2023-04-09T22:38:10.714Z,28.48
2023-04-09T22:41:01.925Z,29.02
2023-04-09T22:43:50.539Z,28.73
2023-04-09T22:46:39.079Z,27.45
2023-04-09T22:49:27.611Z,28.00
2023-04-09T22:52:16.350Z,27.42
2023-04-09T22:55:06.513Z,28.65
2023-04-09T22:57:57.620Z,28.85
2023-04-09T23:00:47.001Z,28.83
2023-04-09T23:03:36.017Z,27.30
2023-04-09T23:06:26.553Z,26.65
2023-04-09T23:09:15.240Z,25.95
2023-04-09T23:12:03.866Z,27.35
2023-04-09T23:14:54.882Z,27.13
2023-04-09T23:17:43.457Z,27.77
2023-04-09T23:20:32.025Z,24.52
2023-04-09T23:23:20.528Z,23.75
2023-04-09T23:26:09.077Z,25.65
2023-04-09T23:28:57.645Z,27.38
2023-04-09T23:31:47.526Z,26.45
2023-04-09T23:34:36.206Z,27.52
2023-04-09T23:37:24.823Z,28.42
2023-04-09T23:40:15.115Z,29.15
2023-04-09T23:43:03.669Z,25.70
2023-04-09T23:45:52.225Z,26.85
2023-04-09T23:48:42.112Z,28.33
2023-04-09T23:51:31.473Z,27.17
2023-04-09T23:54:19.973Z,27.25
2023-04-09T23:57:08.629Z,26.67
2023-04-09T23:59:57.477Z,26.48
